createdAt,value
2018-05-03T00:00:43.926Z,78.64
2018-05-03T00:03:11.593Z,78.60
2018-05-03T00:05:39.114Z,78.71
2018-05-03T00:08:06.609Z,78.62
2018-05-03T00:10:34.082Z,79.04
2018-05-03T00:13:01.605Z,78.89
2018-05-03T00:15:29.168Z,79.21
2018-05-03T00:17:56.638Z,78.86
2018-05-03T00:20:24.127Z,78.96
2018-05-03T00:22:51.629Z,79.13
2018-05-03T00:25:19.128Z,78.99
2018-05-03T00:27:46.623Z,78.28
2018-05-03T00:30:14.109Z,78.70
2018-05-03T00:32:41.619Z,78.51
2018-05-03T00:35:09.141Z,78.42
2018-05-03T00:37:37.391Z,78.83
2018-05-03T00:40:04.860Z,78.76
2018-05-03T00:42:32.425Z,79.07
2018-05-03T00:44:59.906Z,78.90
2018-05-03T00:47:27.391Z,78.91
2018-05-03T00:49:54.882Z,79.16
2018-05-03T00:52:22.412Z,79.22
2018-05-03T00:54:50.932Z,79.16
2018-05-03T00:57:18.406Z,79.47
2018-05-03T00:59:45.902Z,79.58
2018-05-03T01:02:13.430Z,79.49
2018-05-03T01:04:40.935Z,78.98
2018-05-03T01:07:08.480Z,79.55
2018-05-03T01:09:36.102Z,79.58
2018-05-03T01:12:03.673Z,79.52
2018-05-03T01:14:31.240Z,79.55
2018-05-03T01:16:58.782Z,79.51
2018-05-03T01:19:26.325Z,79.40
2018-05-03T01:21:53.900Z,79.20
2018-05-03T01:24:21.418Z,79.19
2018-05-03T01:26:48.946Z,79.18
2018-05-03T01:29:16.488Z,79.11
2018-05-03T01:31:44.010Z,79.44
2018-05-03T01:34:11.514Z,79.83
2018-05-03T01:36:39.003Z,80.06
2018-05-03T01:39:06.536Z,80.01
2018-05-03T01:41:34.066Z,79.99
2018-05-03T01:44:01.574Z,80.96
2018-05-03T01:46:29.492Z,80.66
2018-05-03T01:48:57.070Z,81.03
2018-05-03T01:51:24.735Z,81.57
2018-05-03T01:53:52.253Z,81.41
2018-05-03T01:56:19.815Z,81.82
2018-05-03T01:58:47.388Z,82.02
2018-05-03T02:01:15.065Z,81.66
2018-05-03T02:03:42.591Z,81.44
2018-05-03T02:06:10.156Z,81.75
2018-05-03T02:08:37.662Z,81.89
2018-05-03T02:11:05.157Z,81.56
2018-05-03T02:13:32.653Z,81.62
2018-05-03T02:16:00.241Z,81.97
2018-05-03T02:18:27.835Z,81.85
2018-05-03T02:20:55.381Z,81.81
2018-05-03T02:23:22.999Z,81.70
2018-05-03T02:25:50.490Z,81.65
2018-05-03T02:28:18.174Z,81.43
2018-05-03T02:30:45.681Z,81.47
2018-05-03T02:33:13.161Z,81.33
2018-05-03T02:35:40.642Z,80.93
2018-05-03T02:38:08.146Z,80.56
2018-05-03T02:40:35.668Z,80.66
2018-05-03T02:43:03.203Z,80.52
2018-05-03T02:45:30.794Z,80.31
2018-05-03T02:47:58.359Z,80.53
2018-05-03T02:50:25.893Z,80.67
2018-05-03T02:52:53.446Z,80.62
2018-05-03T02:55:21.008Z,80.43
2018-05-03T02:58:06.005Z,80.15
2018-05-03T03:03:41.181Z,79.96
2018-05-03T03:06:20.341Z,79.89
2018-05-03T03:15:23.861Z,80.32
2018-05-03T03:18:09.012Z,80.34
2018-05-03T03:20:54.781Z,80.61
2018-05-03T03:23:39.702Z,80.87
2018-05-03T03:29:32.855Z,80.89
2018-05-03T03:32:15.209Z,81.21
2018-05-03T03:34:42.839Z,80.84
2018-05-03T03:37:22.161Z,80.79
2018-05-03T03:40:07.002Z,80.55
2018-05-03T03:45:42.666Z,80.42
2018-05-03T03:48:10.206Z,80.10
2018-05-03T03:50:37.739Z,80.02
2018-05-03T03:53:05.382Z,79.99
2018-05-03T03:55:32.954Z,79.87
2018-05-03T03:58:00.521Z,79.44
2018-05-03T04:00:28.102Z,80.00
2018-05-03T04:02:55.684Z,80.24
2018-05-03T04:05:23.233Z,80.11
2018-05-03T04:07:50.765Z,79.82
2018-05-03T04:10:18.256Z,80.21
2018-05-03T04:12:45.821Z,80.03
2018-05-03T04:15:13.800Z,80.01
2018-05-03T04:17:53.075Z,80.20
2018-05-03T04:20:40.081Z,79.89
2018-05-03T04:26:07.687Z,80.40
2018-05-03T04:28:35.268Z,80.16
2018-05-03T04:31:02.855Z,80.42
2018-05-03T04:33:30.459Z,79.97
2018-05-03T04:35:58.086Z,80.02
2018-05-03T04:38:25.643Z,79.71
2018-05-03T04:40:53.243Z,80.07
2018-05-03T04:43:20.851Z,80.08
2018-05-03T04:45:48.459Z,80.17
2018-05-03T04:48:16.035Z,80.05
2018-05-03T04:50:43.680Z,79.86
2018-05-03T04:53:11.251Z,79.40
2018-05-03T04:55:38.831Z,79.95
2018-05-03T04:58:06.483Z,80.13
2018-05-03T05:00:34.097Z,80.19
2018-05-03T05:03:01.692Z,80.20
2018-05-03T05:05:29.308Z,80.44
2018-05-03T05:07:56.973Z,80.51
2018-05-03T05:10:24.631Z,80.12
2018-05-03T05:12:52.224Z,80.24
2018-05-03T05:15:20.059Z,80.48
2018-05-03T05:17:47.629Z,80.44
2018-05-03T05:20:15.189Z,80.67
2018-05-03T05:22:42.776Z,81.01
2018-05-03T05:25:10.654Z,81.01
2018-05-03T05:27:38.251Z,80.76
2018-05-03T05:30:05.865Z,80.42
2018-05-03T05:32:33.575Z,79.84
2018-05-03T05:35:01.123Z,79.98
2018-05-03T05:37:28.719Z,80.15
2018-05-03T05:39:56.292Z,80.39
2018-05-03T05:42:23.845Z,80.56
2018-05-03T05:44:51.388Z,80.69
2018-05-03T05:47:18.945Z,80.53
2018-05-03T05:49:46.454Z,80.18
2018-05-03T05:52:13.980Z,79.96
2018-05-03T05:54:41.497Z,80.57
2018-05-03T05:57:09.096Z,81.03
2018-05-03T05:59:36.577Z,81.12
2018-05-03T06:02:04.137Z,81.27
2018-05-03T06:04:31.897Z,81.13
2018-05-03T06:06:59.479Z,80.71
2018-05-03T06:09:27.487Z,80.64
2018-05-03T06:11:55.145Z,80.45
2018-05-03T06:14:22.748Z,80.52
2018-05-03T06:16:50.317Z,79.61
2018-05-03T06:19:17.946Z,80.08
2018-05-03T06:21:45.567Z,80.31
2018-05-03T06:24:13.209Z,79.76
2018-05-03T06:26:40.778Z,79.73
2018-05-03T06:29:08.351Z,79.52
2018-05-03T06:31:35.945Z,78.89
2018-05-03T06:34:03.550Z,78.15
2018-05-03T06:36:31.215Z,78.46
2018-05-03T06:38:58.876Z,79.02
2018-05-03T06:41:26.471Z,78.88
2018-05-03T06:43:54.054Z,78.57
2018-05-03T06:46:21.598Z,78.35
2018-05-03T06:48:49.192Z,77.74
2018-05-03T06:51:16.795Z,77.44
2018-05-03T06:53:44.396Z,76.93
2018-05-03T06:56:11.966Z,76.29
2018-05-03T06:58:39.569Z,76.04
2018-05-03T07:01:07.132Z,75.60
2018-05-03T07:03:34.634Z,73.61
2018-05-03T07:06:02.148Z,70.59
2018-05-03T07:08:29.797Z,71.31
2018-05-03T07:10:57.340Z,70.56
2018-05-03T07:13:24.927Z,67.69
2018-05-03T07:15:52.504Z,68.08
2018-05-03T07:18:20.107Z,67.26
2018-05-03T07:20:47.829Z,66.91
2018-05-03T07:23:15.472Z,66.57
2018-05-03T07:25:43.085Z,66.77
2018-05-03T07:28:10.713Z,65.96
2018-05-03T07:30:38.438Z,65.54
2018-05-03T07:33:06.082Z,66.49
2018-05-03T07:35:33.678Z,66.02
2018-05-03T07:38:01.267Z,66.20
2018-05-03T07:40:28.926Z,64.16
2018-05-03T07:42:56.501Z,64.52
2018-05-03T07:45:24.085Z,64.62
2018-05-03T07:47:51.778Z,64.17
2018-05-03T07:50:19.336Z,63.09
2018-05-03T07:52:46.893Z,62.85
2018-05-03T07:55:14.484Z,62.60
2018-05-03T07:57:42.086Z,63.13
2018-05-03T08:00:09.667Z,62.94
2018-05-03T08:02:37.262Z,61.96
2018-05-03T08:05:04.798Z,63.14
2018-05-03T08:07:32.338Z,63.46
2018-05-03T08:09:59.859Z,63.68
2018-05-03T08:12:27.529Z,62.76
2018-05-03T08:14:55.197Z,62.79
2018-05-03T08:17:22.748Z,62.23
2018-05-03T08:19:50.322Z,59.85
2018-05-03T08:22:17.968Z,60.77
2018-05-03T08:24:45.531Z,61.52
2018-05-03T08:27:13.307Z,61.49
2018-05-03T08:29:40.947Z,60.68
2018-05-03T08:32:08.527Z,60.91
2018-05-03T08:34:36.322Z,61.37
2018-05-03T08:37:04.024Z,61.86
2018-05-03T08:39:31.779Z,62.49
2018-05-03T08:41:59.383Z,61.15
2018-05-03T08:44:26.973Z,60.20
2018-05-03T08:46:54.639Z,56.69
2018-05-03T08:49:22.228Z,57.90
2018-05-03T08:51:49.853Z,56.87
2018-05-03T08:54:17.457Z,57.26
2018-05-03T08:56:45.038Z,55.30
2018-05-03T08:59:12.629Z,56.06
2018-05-03T09:01:40.266Z,56.36
2018-05-03T09:04:07.869Z,54.84
2018-05-03T09:06:35.495Z,52.79
2018-05-03T09:09:03.060Z,51.59
2018-05-03T09:11:30.569Z,50.50
2018-05-03T09:13:58.121Z,50.12
2018-05-03T09:16:25.680Z,50.16
2018-05-03T09:18:53.209Z,50.85
2018-05-03T09:21:20.766Z,51.08
2018-05-03T09:23:48.336Z,50.39
2018-05-03T09:26:15.943Z,50.59
2018-05-03T09:28:43.485Z,51.20
2018-05-03T09:31:11.895Z,49.31
2018-05-03T09:33:39.498Z,48.01
2018-05-03T09:36:07.072Z,48.44
2018-05-03T09:38:34.745Z,49.12
2018-05-03T09:41:02.409Z,50.08
2018-05-03T09:43:30.018Z,50.74
2018-05-03T09:45:57.568Z,50.87
2018-05-03T09:48:25.394Z,49.93
2018-05-03T09:50:53.010Z,51.00
2018-05-03T09:53:20.577Z,51.93
2018-05-03T09:55:48.145Z,52.37
2018-05-03T09:58:15.732Z,52.43
2018-05-03T10:00:43.274Z,51.62
2018-05-03T10:03:11.241Z,49.32
2018-05-03T10:05:43.953Z,49.45
2018-05-03T10:08:15.938Z,47.86
2018-05-03T10:10:44.263Z,49.02
2018-05-03T10:13:11.858Z,50.03
2018-05-03T10:15:39.395Z,47.77
2018-05-03T10:18:06.896Z,47.21
2018-05-03T10:20:34.549Z,48.32
2018-05-03T10:23:02.173Z,49.34
2018-05-03T10:25:31.549Z,48.78
2018-05-03T10:27:59.214Z,45.80
2018-05-03T10:30:26.808Z,47.50
2018-05-03T10:32:54.383Z,48.36
2018-05-03T10:35:22.020Z,46.10
2018-05-03T10:37:50.423Z,45.83
2018-05-03T10:40:17.996Z,46.07
2018-05-03T10:45:19.339Z,45.70
2018-05-03T10:47:46.929Z,46.12
2018-05-03T10:50:14.494Z,44.72
2018-05-03T10:52:42.053Z,44.61
2018-05-03T10:55:09.910Z,45.75
2018-05-03T10:57:37.662Z,46.10
2018-05-03T11:00:05.269Z,46.51
2018-05-03T11:02:32.832Z,46.81
2018-05-03T11:05:00.449Z,43.85
2018-05-03T11:07:28.007Z,43.96
2018-05-03T11:09:55.560Z,43.83
2018-05-03T11:12:23.136Z,42.95
2018-05-03T11:14:50.741Z,42.54
2018-05-03T11:17:18.416Z,43.86
2018-05-03T11:19:46.097Z,44.32
2018-05-03T11:22:13.713Z,43.61
2018-05-03T11:24:41.384Z,42.62
2018-05-03T11:27:09.415Z,43.75
2018-05-03T11:29:37.534Z,43.85
2018-05-03T11:32:05.227Z,43.29
2018-05-03T11:34:33.052Z,43.15
2018-05-03T11:37:00.752Z,43.04
2018-05-03T11:39:28.285Z,42.82
2018-05-03T11:41:55.904Z,42.96
2018-05-03T11:44:23.489Z,42.71
2018-05-03T11:46:51.071Z,41.71
2018-05-03T11:49:18.667Z,41.74
2018-05-03T11:51:46.226Z,40.86
2018-05-03T11:54:13.782Z,41.16
2018-05-03T11:56:41.381Z,40.81
2018-05-03T11:59:08.998Z,40.12
2018-05-03T12:01:36.548Z,41.15
2018-05-03T12:04:11.118Z,38.22
2018-05-03T12:06:40.850Z,39.77
2018-05-03T12:09:08.436Z,38.96
2018-05-03T12:11:36.002Z,38.96
2018-05-03T12:14:03.565Z,39.60
2018-05-03T12:16:31.364Z,39.07
2018-05-03T12:18:58.970Z,39.89
2018-05-03T12:21:26.527Z,39.91
2018-05-03T12:23:54.107Z,39.24
2018-05-03T12:26:21.765Z,39.56
2018-05-03T12:28:49.419Z,38.56
2018-05-03T12:31:17.428Z,38.49
2018-05-03T12:33:45.126Z,38.85
2018-05-03T12:36:12.746Z,37.88
2018-05-03T12:38:40.338Z,37.38
2018-05-03T12:41:07.915Z,37.76
2018-05-03T12:43:35.558Z,38.07
2018-05-03T12:46:03.162Z,37.87
2018-05-03T12:48:30.759Z,37.44
2018-05-03T12:50:58.401Z,36.80
2018-05-03T12:53:26.309Z,36.74
2018-05-03T12:55:53.903Z,36.87
2018-05-03T12:58:21.480Z,36.25
2018-05-03T13:00:49.136Z,34.80
2018-05-03T13:03:16.865Z,35.87
2018-05-03T13:05:44.406Z,35.92
2018-05-03T13:08:11.964Z,37.09
2018-05-03T13:10:39.849Z,37.97
2018-05-03T13:13:07.551Z,37.31
2018-05-03T13:15:35.275Z,36.66
2018-05-03T13:18:03.814Z,37.45
2018-05-03T13:20:31.397Z,37.96
2018-05-03T13:22:58.954Z,37.17
2018-05-03T13:25:26.562Z,37.83
2018-05-03T13:27:54.213Z,37.94
2018-05-03T13:30:21.798Z,37.18
2018-05-03T13:32:49.380Z,37.02
2018-05-03T13:35:17.131Z,37.00
2018-05-03T13:37:44.824Z,36.83
2018-05-03T13:40:12.453Z,36.39
2018-05-03T13:42:40.041Z,37.31
2018-05-03T13:45:07.630Z,37.09
2018-05-03T13:47:35.254Z,37.62
2018-05-03T13:50:02.797Z,38.11
2018-05-03T13:52:30.328Z,37.35
2018-05-03T13:54:57.836Z,37.73
2018-05-03T13:57:25.525Z,36.27
2018-05-03T13:59:53.196Z,36.09
2018-05-03T14:02:20.806Z,36.67
2018-05-03T14:04:56.894Z,37.05
2018-05-03T14:07:29.203Z,36.59
2018-05-03T14:09:59.804Z,37.02
2018-05-03T14:12:27.742Z,37.64
2018-05-03T14:14:55.330Z,37.19
2018-05-03T14:17:25.448Z,36.96
2018-05-03T14:19:53.093Z,37.42
2018-05-03T14:22:20.674Z,37.38
2018-05-03T14:24:48.244Z,38.10
2018-05-03T14:27:15.885Z,38.89
2018-05-03T14:29:43.460Z,39.31
2018-05-03T14:32:11.046Z,39.85
2018-05-03T14:34:38.696Z,39.66
2018-05-03T14:37:06.424Z,39.96
2018-05-03T14:39:33.988Z,39.75
2018-05-03T14:42:01.576Z,39.37
2018-05-03T14:44:29.401Z,39.18
2018-05-03T14:46:56.958Z,38.90
2018-05-03T14:49:24.510Z,38.04
2018-05-03T14:51:52.026Z,38.43
2018-05-03T14:54:19.694Z,39.40
2018-05-03T14:56:47.234Z,38.72
2018-05-03T14:59:14.727Z,39.07
2018-05-03T15:01:42.229Z,38.62
2018-05-03T15:04:09.764Z,39.49
2018-05-03T15:06:37.305Z,40.30
2018-05-03T15:09:05.650Z,40.32
2018-05-03T15:11:34.284Z,40.20
2018-05-03T15:14:01.878Z,40.82
2018-05-03T15:16:29.524Z,41.79
2018-05-03T15:18:57.072Z,41.28
2018-05-03T15:21:24.785Z,41.78
2018-05-03T15:23:52.355Z,42.40
2018-05-03T15:26:19.961Z,42.48
2018-05-03T15:28:47.547Z,42.37
2018-05-03T15:31:15.107Z,42.13
2018-05-03T15:33:42.745Z,41.96
2018-05-03T15:36:10.315Z,42.64
2018-05-03T15:38:37.889Z,42.93
2018-05-03T15:41:05.717Z,42.72
2018-05-03T15:43:33.432Z,42.56
2018-05-03T15:46:01.065Z,42.96
2018-05-03T15:48:28.668Z,43.21
2018-05-03T15:50:56.234Z,43.08
2018-05-03T15:53:23.811Z,42.86
2018-05-03T15:55:51.384Z,42.17
2018-05-03T15:58:18.953Z,42.93
2018-05-03T16:00:46.514Z,43.03
2018-05-03T16:03:14.105Z,42.83
2018-05-03T16:05:47.038Z,43.08
2018-05-03T16:08:14.651Z,43.50
2018-05-03T16:10:42.192Z,44.79
2018-05-03T16:13:10.054Z,45.43
2018-05-03T16:15:37.671Z,44.77
2018-05-03T16:18:05.275Z,44.59
2018-05-03T16:20:32.972Z,44.68
2018-05-03T16:23:00.458Z,45.28
2018-05-03T16:25:27.979Z,45.31
2018-05-03T16:27:55.534Z,46.02
2018-05-03T16:30:23.076Z,45.46
2018-05-03T16:32:50.618Z,45.54
2018-05-03T16:35:18.269Z,45.91
2018-05-03T16:37:45.870Z,45.00
2018-05-03T16:40:13.456Z,46.14
2018-05-03T16:42:40.996Z,46.05
2018-05-03T16:45:08.540Z,45.89
2018-05-03T16:47:36.137Z,46.45
2018-05-03T16:50:03.686Z,45.93
2018-05-03T16:52:31.242Z,46.34
2018-05-03T16:54:58.878Z,46.50
2018-05-03T16:57:26.474Z,47.01
2018-05-03T16:59:54.033Z,46.95
2018-05-03T17:02:22.076Z,47.33
2018-05-03T17:04:49.729Z,47.73
2018-05-03T17:07:17.262Z,49.33
2018-05-03T17:09:44.851Z,50.45
2018-05-03T17:12:12.407Z,51.49
2018-05-03T17:14:39.979Z,52.36
2018-05-03T17:17:07.640Z,52.79
2018-05-03T17:19:35.208Z,53.75
2018-05-03T17:22:02.801Z,54.37
2018-05-03T17:24:30.395Z,54.38
2018-05-03T17:26:58.001Z,54.80
2018-05-03T17:29:25.620Z,55.05
2018-05-03T17:31:53.147Z,55.41
2018-05-03T17:34:20.771Z,56.27
2018-05-03T17:36:48.400Z,56.54
2018-05-03T17:39:16.006Z,56.90
2018-05-03T17:41:43.701Z,57.01
2018-05-03T17:44:11.341Z,57.75
2018-05-03T17:46:38.906Z,58.53
2018-05-03T17:49:06.479Z,59.13
2018-05-03T17:51:34.058Z,60.06
2018-05-03T17:54:01.616Z,60.30
2018-05-03T17:56:29.222Z,60.45
2018-05-03T17:58:56.794Z,60.75
2018-05-03T18:01:24.350Z,60.47
2018-05-03T18:03:54.948Z,60.47
2018-05-03T18:06:22.526Z,60.72
2018-05-03T18:08:50.039Z,60.60
2018-05-03T18:11:17.592Z,60.72
2018-05-03T18:13:45.231Z,60.66
2018-05-03T18:16:12.887Z,59.28
2018-05-03T18:18:40.536Z,57.83
2018-05-03T18:21:08.721Z,55.60
2018-05-03T18:23:36.312Z,54.92
2018-05-03T18:26:03.912Z,54.32
2018-05-03T18:28:31.605Z,54.19
2018-05-03T18:30:59.192Z,54.08
2018-05-03T18:33:26.806Z,54.18
2018-05-03T18:35:54.742Z,54.65
2018-05-03T18:38:22.614Z,54.76
2018-05-03T18:40:50.168Z,54.79
2018-05-03T18:43:17.837Z,55.23
2018-05-03T18:45:45.515Z,55.09
2018-05-03T18:48:13.177Z,55.29
2018-05-03T18:50:40.954Z,55.49
2018-05-03T18:53:08.564Z,55.75
2018-05-03T18:55:36.108Z,55.97
2018-05-03T18:58:03.712Z,55.92
2018-05-03T19:00:31.285Z,56.46
2018-05-03T19:02:59.160Z,56.59
2018-05-03T19:05:27.065Z,56.65
2018-05-03T19:07:54.687Z,56.81
2018-05-03T19:10:22.508Z,56.91
2018-05-03T19:12:49.895Z,57.36
2018-05-03T19:15:17.502Z,57.71
2018-05-03T19:17:45.357Z,58.18
2018-05-03T19:20:12.865Z,58.59
2018-05-03T19:22:40.485Z,58.83
2018-05-03T19:25:08.167Z,58.95
2018-05-03T19:27:35.787Z,59.75
2018-05-03T19:30:03.361Z,60.24
2018-05-03T19:32:31.205Z,60.48
2018-05-03T19:34:58.807Z,60.93
2018-05-03T19:37:26.663Z,60.95
2018-05-03T19:39:54.352Z,60.90
2018-05-03T19:42:21.921Z,60.86
2018-05-03T19:44:49.445Z,60.80
2018-05-03T19:47:17.265Z,60.97
2018-05-03T19:49:45.149Z,61.08
2018-05-03T19:52:12.700Z,61.31
2018-05-03T19:54:40.315Z,61.41
2018-05-03T19:57:07.907Z,61.91
2018-05-03T19:59:35.718Z,62.13
2018-05-03T20:02:03.347Z,62.28
2018-05-03T20:04:31.121Z,62.36
2018-05-03T20:06:58.798Z,62.57
2018-05-03T20:09:26.409Z,62.50
2018-05-03T20:11:54.039Z,63.06
2018-05-03T20:14:21.676Z,63.15
2018-05-03T20:16:49.232Z,63.12
2018-05-03T20:19:17.619Z,63.32
2018-05-03T20:21:45.152Z,63.41
2018-05-03T20:24:12.765Z,63.20
2018-05-03T20:26:40.349Z,63.75
2018-05-03T20:29:07.988Z,64.19
2018-05-03T20:31:35.662Z,65.14
2018-05-03T20:34:03.262Z,66.04
2018-05-03T20:36:31.112Z,67.32
2018-05-03T20:38:58.729Z,67.27
2018-05-03T20:41:27.538Z,68.26
2018-05-03T20:43:55.168Z,68.46
2018-05-03T20:46:22.738Z,69.06
2018-05-03T20:48:50.619Z,69.26
2018-05-03T20:51:18.191Z,69.54
2018-05-03T20:53:45.835Z,69.56
2018-05-03T20:56:13.470Z,69.97
2018-05-03T20:58:41.040Z,69.90
2018-05-03T21:01:08.710Z,69.67
2018-05-03T21:03:36.305Z,69.89
2018-05-03T21:06:03.926Z,69.72
2018-05-03T21:08:31.433Z,70.05
2018-05-03T21:10:58.948Z,70.19
2018-05-03T21:13:26.652Z,70.00
2018-05-03T21:15:54.160Z,70.46
2018-05-03T21:18:21.737Z,70.43
2018-05-03T21:20:49.349Z,70.54
2018-05-03T21:23:17.075Z,70.26
2018-05-03T21:25:44.716Z,70.36
2018-05-03T21:28:12.321Z,70.43
2018-05-03T21:30:39.887Z,70.40
2018-05-03T21:33:07.442Z,70.56
2018-05-03T21:35:35.052Z,70.24
2018-05-03T21:38:02.700Z,70.47
2018-05-03T21:40:30.203Z,70.21
2018-05-03T21:42:57.728Z,70.53
2018-05-03T21:45:25.287Z,70.68
2018-05-03T21:47:52.877Z,70.95
2018-05-03T21:50:20.437Z,71.08
2018-05-03T21:52:48.059Z,71.74
2018-05-03T21:55:15.685Z,71.45
2018-05-03T21:57:43.330Z,71.97
2018-05-03T22:00:10.917Z,72.48
2018-05-03T22:02:48.845Z,72.52
2018-05-03T22:05:16.493Z,72.66
2018-05-03T22:07:44.213Z,72.91
2018-05-03T22:10:11.804Z,73.21
2018-05-03T22:12:39.405Z,72.78
2018-05-03T22:15:07.040Z,71.83
2018-05-03T22:17:34.646Z,71.74
2018-05-03T22:20:02.245Z,71.36
2018-05-03T22:22:29.850Z,71.20
2018-05-03T22:24:57.441Z,71.41
2018-05-03T22:27:25.093Z,71.27
2018-05-03T22:29:52.691Z,71.33
2018-05-03T22:32:20.200Z,70.88
2018-05-03T22:37:44.647Z,71.50
2018-05-03T22:40:12.178Z,71.60
2018-05-03T22:42:39.758Z,71.79
2018-05-03T22:45:07.310Z,71.65
2018-05-03T22:47:35.041Z,71.80
2018-05-03T22:50:02.602Z,71.55
2018-05-03T22:52:30.196Z,71.71
2018-05-03T22:54:57.893Z,71.66
2018-05-03T22:57:25.403Z,71.58
2018-05-03T22:59:52.961Z,71.86
2018-05-03T23:02:20.589Z,71.65
2018-05-03T23:04:48.158Z,71.31
2018-05-03T23:07:15.844Z,71.02
2018-05-03T23:09:43.465Z,71.07
2018-05-03T23:12:11.038Z,70.86
2018-05-03T23:14:38.669Z,71.01
2018-05-03T23:19:56.473Z,70.90
2018-05-03T23:22:23.974Z,70.88
2018-05-03T23:24:51.477Z,70.87
2018-05-03T23:27:19.400Z,70.38
2018-05-03T23:29:46.973Z,70.73
2018-05-03T23:32:14.537Z,71.08
2018-05-03T23:34:42.139Z,71.36
2018-05-03T23:37:10.239Z,70.65
2018-05-03T23:39:37.770Z,70.87
2018-05-03T23:42:05.296Z,71.21
2018-05-03T23:44:32.835Z,71.36
2018-05-03T23:47:00.378Z,71.37
2018-05-03T23:49:28.016Z,71.01
2018-05-03T23:51:55.583Z,70.93
2018-05-03T23:54:23.094Z,71.02
2018-05-03T23:56:50.611Z,71.01
2018-05-03T23:59:18.221Z,71.13
